Time;durP1;ratioP1;P1;durP2;ratioP2;P2;SDS_P1;SDS_P2;PMS_P1;PMS_P2;Temp;Humidity;BMP_temperature;BMP_pressure;BME280_temperature;BME280_humidity;BME280_pressure;Samples;Min_cycle;Max_cycle;Signal;HPM_P1;HPM_P2
2022/02/15 00:01:06;;;;;;;803.80;411.05;;;;;;;;;;4948484;29;20486;-74
2022/02/15 00:03:41;;;;;;;803.60;412.23;;;;;;;;;;4950354;28;20039;-74
2022/02/15 00:06:07;;;;;;;804.60;411.52;;;;;;;;;;4949536;28;20035;-74
2022/02/15 00:08:33;;;;;;;804.78;410.05;;;;;;;;;;4954231;28;20038;-75
2022/02/15 00:10:59;;;;;;;805.13;414.00;;;;;;;;;;4938629;29;20032;-74
2022/02/15 00:13:25;;;;;;;800.20;409.08;;;;;;;;;;4945965;28;20107;-74
2022/02/15 00:15:51;;;;;;;804.17;409.20;;;;;;;;;;4948604;29;20119;-74
2022/02/15 00:18:17;;;;;;;802.30;414.73;;;;;;;;;;4949136;28;20036;-74
2022/02/15 00:20:44;;;;;;;805.10;417.10;;;;;;;;;;4948720;29;20038;-74
2022/02/15 00:23:10;;;;;;;806.00;416.50;;;;;;;;;;4948815;28;20068;-74
2022/02/15 00:25:36;;;;;;;805.55;415.83;;;;;;;;;;4947688;29;20463;-74
2022/02/15 00:28:05;;;;;;;807.30;418.95;;;;;;;;;;4948745;28;20130;-74
2022/02/15 00:30:31;;;;;;;803.80;413.30;;;;;;;;;;4949756;28;20077;-74
2022/02/15 00:32:57;;;;;;;806.22;416.20;;;;;;;;;;4949228;29;20031;-73
2022/02/15 00:35:23;;;;;;;806.30;420.73;;;;;;;;;;4948918;28;20043;-74
2022/02/15 00:37:49;;;;;;;802.20;412.10;;;;;;;;;;4948210;28;20043;-74
2022/02/15 00:40:15;;;;;;;800.83;407.02;;;;;;;;;;4949405;28;20387;-74
2022/02/15 00:42:41;;;;;;;803.60;414.92;;;;;;;;;;4941965;28;20047;-74
2022/02/15 00:45:08;;;;;;;805.95;413.60;;;;;;;;;;4944317;28;20054;-73
2022/02/15 00:47:34;;;;;;;807.67;417.27;;;;;;;;;;4943514;28;20077;-74
2022/02/15 00:50:01;;;;;;;805.85;413.48;;;;;;;;;;4943347;29;20858;-74
2022/02/15 00:52:27;;;;;;;804.95;411.63;;;;;;;;;;4946295;29;20161;-74
2022/02/15 00:54:57;;;;;;;805.70;413.55;;;;;;;;;;4944246;29;20031;-74
2022/02/15 00:57:23;;;;;;;801.30;402.23;;;;;;;;;;4943590;28;20031;-74
2022/02/15 00:59:54;;;;;;;802.58;407.10;;;;;;;;;;4947416;29;20526;-73
2022/02/15 01:02:20;;;;;;;805.25;408.05;;;;;;;;;;4945576;28;20046;-74
2022/02/15 01:04:46;;;;;;;802.35;402.25;;;;;;;;;;4957097;28;20370;-74
2022/02/15 01:07:12;;;;;;;803.75;409.20;;;;;;;;;;4948839;28;20117;-74
2022/02/15 01:09:39;;;;;;;801.42;406.13;;;;;;;;;;4949364;28;20035;-75
2022/02/15 01:12:05;;;;;;;799.53;402.25;;;;;;;;;;4948432;28;20053;-74
2022/02/15 01:14:31;;;;;;;802.33;403.38;;;;;;;;;;4947644;29;20041;-74
2022/02/15 01:16:57;;;;;;;800.75;401.08;;;;;;;;;;4943353;28;20631;-74
2022/02/15 01:19:23;;;;;;;804.95;413.63;;;;;;;;;;4946843;28;20046;-74
2022/02/15 01:21:49;;;;;;;800.28;402.65;;;;;;;;;;4946971;28;20038;-75
2022/02/15 01:24:15;;;;;;;802.50;404.80;;;;;;;;;;4948643;28;20031;-74
2022/02/15 01:26:41;;;;;;;803.20;409.02;;;;;;;;;;4948023;28;20070;-74
2022/02/15 01:29:07;;;;;;;802.75;406.23;;;;;;;;;;4942891;29;20066;-74
2022/02/15 01:31:33;;;;;;;800.67;406.98;;;;;;;;;;4947629;29;20479;-74
2022/02/15 01:33:59;;;;;;;802.20;405.08;;;;;;;;;;4949821;28;20471;-74
2022/02/15 01:36:25;;;;;;;801.85;407.77;;;;;;;;;;4953920;28;20043;-74
2022/02/15 01:38:54;;;;;;;801.83;402.08;;;;;;;;;;4970050;28;20035;-74
2022/02/15 01:41:20;;;;;;;798.33;396.70;;;;;;;;;;4953434;28;20081;-74
2022/02/15 01:43:49;;;;;;;798.97;400.20;;;;;;;;;;4955706;28;20107;-73
2022/02/15 01:46:15;;;;;;;800.20;401.08;;;;;;;;;;4952070;28;20047;-74
2022/02/15 01:48:47;;;;;;;800.17;398.45;;;;;;;;;;4951546;29;20570;-74
2022/02/15 01:51:13;;;;;;;803.00;400.98;;;;;;;;;;4981718;28;20413;-74
2022/02/15 01:53:39;;;;;;;800.58;403.92;;;;;;;;;;4952940;29;20122;-74
2022/02/15 01:56:08;;;;;;;800.00;396.73;;;;;;;;;;4954424;28;20157;-74
2022/02/15 01:58:34;;;;;;;796.67;402.00;;;;;;;;;;4954950;28;20031;-74
2022/02/15 02:01:00;;;;;;;800.67;400.58;;;;;;;;;;4955029;28;20146;-74
2022/02/15 02:03:29;;;;;;;797.55;395.20;;;;;;;;;;4954128;28;20047;-74
2022/02/15 02:05:55;;;;;;;794.58;388.73;;;;;;;;;;4953884;29;20031;-74
2022/02/15 02:08:29;;;;;;;796.28;387.67;;;;;;;;;;4954983;29;20024;-74
2022/02/15 02:10:55;;;;;;;797.28;394.35;;;;;;;;;;4952131;29;20809;-74
2022/02/15 02:13:21;;;;;;;797.17;392.15;;;;;;;;;;4955015;28;20034;-73
2022/02/15 02:15:49;;;;;;;796.85;395.02;;;;;;;;;;4957787;28;20057;-74
2022/02/15 02:18:15;;;;;;;793.00;383.67;;;;;;;;;;4954081;29;20035;-74
2022/02/15 02:20:42;;;;;;;792.72;386.02;;;;;;;;;;4954427;29;20395;-74
2022/02/15 02:23:16;;;;;;;795.15;386.35;;;;;;;;;;4953592;28;20517;-74
2022/02/15 02:25:42;;;;;;;795.50;383.38;;;;;;;;;;4952390;28;20035;-74
2022/02/15 02:28:09;;;;;;;795.65;385.67;;;;;;;;;;4953895;29;20035;-74
2022/02/15 02:30:35;;;;;;;794.72;385.80;;;;;;;;;;4954061;28;20135;-74
2022/02/15 02:33:01;;;;;;;796.72;385.80;;;;;;;;;;4954429;28;20055;-74
2022/02/15 02:35:27;;;;;;;793.72;376.90;;;;;;;;;;4955024;28;20643;-74
2022/02/15 02:37:53;;;;;;;790.65;377.65;;;;;;;;;;4966816;28;20118;-74
2022/02/15 02:40:19;;;;;;;795.83;384.35;;;;;;;;;;4952423;29;20447;-74
2022/02/15 02:42:45;;;;;;;794.20;384.08;;;;;;;;;;4953639;28;20089;-75
2022/02/15 02:45:18;;;;;;;791.10;375.40;;;;;;;;;;4955500;28;20442;-74
2022/02/15 02:47:48;;;;;;;792.05;377.85;;;;;;;;;;4949946;28;20529;-74
2022/02/15 02:50:15;;;;;;;792.15;375.08;;;;;;;;;;4951700;28;20037;-73
2022/02/15 02:52:41;;;;;;;794.08;379.80;;;;;;;;;;4948981;29;20035;-74
2022/02/15 02:55:07;;;;;;;791.10;380.73;;;;;;;;;;4950078;29;20032;-74
2022/02/15 02:57:35;;;;;;;788.20;372.17;;;;;;;;;;4963533;28;20111;-73
2022/02/15 03:00:01;;;;;;;789.42;375.17;;;;;;;;;;4955566;28;20051;-74
2022/02/15 03:02:27;;;;;;;791.75;375.50;;;;;;;;;;4951098;28;20705;-74
2022/02/15 03:04:53;;;;;;;786.75;368.17;;;;;;;;;;4951463;28;20035;-74
2022/02/15 03:07:20;;;;;;;791.95;377.83;;;;;;;;;;4949463;28;20028;-74
2022/02/15 03:09:46;;;;;;;789.50;372.40;;;;;;;;;;4966620;28;20490;-74
2022/02/15 03:12:14;;;;;;;792.42;374.98;;;;;;;;;;4948841;28;20611;-74
2022/02/15 03:14:40;;;;;;;795.92;372.00;;;;;;;;;;4948340;29;20117;-74
2022/02/15 03:17:06;;;;;;;790.15;369.10;;;;;;;;;;4945305;28;20186;-74
2022/02/15 03:19:32;;;;;;;789.42;363.63;;;;;;;;;;4950364;29;20091;-74
2022/02/15 03:21:59;;;;;;;786.92;363.40;;;;;;;;;;4950904;28;20130;-75
2022/02/15 03:24:25;;;;;;;812.60;366.80;;;;;;;;;;4948467;28;20058;-74
2022/02/15 03:26:51;;;;;;;788.78;365.20;;;;;;;;;;4950195;28;20058;-74
2022/02/15 03:29:17;;;;;;;789.92;365.55;;;;;;;;;;4950449;29;20554;-74
2022/02/15 03:31:43;;;;;;;791.22;367.33;;;;;;;;;;4966692;28;20034;-74
2022/02/15 03:34:09;;;;;;;789.25;361.45;;;;;;;;;;4942837;29;20108;-74
2022/02/15 03:36:35;;;;;;;789.40;368.90;;;;;;;;;;4950080;28;20059;-74
2022/02/15 03:39:03;;;;;;;789.72;368.30;;;;;;;;;;4950008;28;20031;-74
2022/02/15 03:44:17;;;;;;;790.70;366.08;;;;;;;;;;4952666;28;20126;-74
2022/02/15 03:46:42;;;;;;;791.53;366.90;;;;;;;;;;4949613;29;20593;-74
2022/02/15 03:49:11;;;;;;;789.78;359.67;;;;;;;;;;4950139;28;20031;-74
2022/02/15 03:51:38;;;;;;;788.47;367.67;;;;;;;;;;4949174;28;20059;-74
2022/02/15 03:54:04;;;;;;;794.55;371.63;;;;;;;;;;4946969;29;20031;-74
2022/02/15 03:56:30;;;;;;;790.42;368.83;;;;;;;;;;4945934;28;20098;-74
2022/02/15 03:58:56;;;;;;;789.90;366.65;;;;;;;;;;4943165;28;20122;-75
2022/02/15 04:01:22;;;;;;;794.50;374.17;;;;;;;;;;4950913;28;20038;-74
2022/02/15 04:03:48;;;;;;;791.60;373.75;;;;;;;;;;4947668;28;20039;-74
2022/02/15 04:06:14;;;;;;;793.35;373.33;;;;;;;;;;4949625;28;20463;-74
2022/02/15 04:08:40;;;;;;;794.08;374.50;;;;;;;;;;4948422;28;20054;-74
2022/02/15 04:11:06;;;;;;;790.22;366.08;;;;;;;;;;4947763;28;20526;-74
2022/02/15 04:13:32;;;;;;;792.35;370.67;;;;;;;;;;4955821;28;20045;-74
2022/02/15 04:15:58;;;;;;;791.55;375.90;;;;;;;;;;4948651;29;20118;-74
2022/02/15 04:18:24;;;;;;;790.78;370.20;;;;;;;;;;4950098;28;20066;-74
2022/02/15 04:20:50;;;;;;;793.25;377.83;;;;;;;;;;4950081;28;20122;-74
2022/02/15 04:23:16;;;;;;;790.67;371.85;;;;;;;;;;4948436;28;20118;-74
2022/02/15 04:25:42;;;;;;;793.58;380.95;;;;;;;;;;4951821;28;20757;-74
2022/02/15 04:28:08;;;;;;;794.10;381.88;;;;;;;;;;4949014;29;20565;-74
2022/02/15 04:30:35;;;;;;;792.83;381.48;;;;;;;;;;4948374;29;20035;-74
2022/02/15 04:33:01;;;;;;;793.45;367.17;;;;;;;;;;4953870;28;20039;-74
2022/02/15 04:35:27;;;;;;;792.47;376.20;;;;;;;;;;4946260;28;20055;-74
2022/02/15 04:37:53;;;;;;;792.08;381.33;;;;;;;;;;4948527;29;20560;-74
2022/02/15 04:40:19;;;;;;;792.42;379.13;;;;;;;;;;4950057;28;20038;-74
2022/02/15 04:42:45;;;;;;;796.67;387.60;;;;;;;;;;4948607;28;20039;-74
2022/02/15 04:45:11;;;;;;;793.28;383.23;;;;;;;;;;4948670;28;20035;-74
2022/02/15 04:47:37;;;;;;;790.83;377.52;;;;;;;;;;4944053;28;20045;-74
2022/02/15 04:50:04;;;;;;;796.85;383.27;;;;;;;;;;4946317;28;20031;-74
2022/02/15 04:52:30;;;;;;;787.33;374.00;;;;;;;;;;4959491;28;20055;-74
2022/02/15 04:54:56;;;;;;;798.58;377.80;;;;;;;;;;4949230;28;20161;-74
2022/02/15 04:57:22;;;;;;;792.35;381.15;;;;;;;;;;4945740;28;20035;-74
2022/02/15 04:59:47;;;;;;;790.45;375.10;;;;;;;;;;4949118;28;20438;-74
2022/02/15 05:02:13;;;;;;;790.85;376.70;;;;;;;;;;4955067;28;20047;-74
2022/02/15 05:04:48;;;;;;;787.20;368.92;;;;;;;;;;4944782;29;20035;-74
2022/02/15 05:07:15;;;;;;;790.58;374.95;;;;;;;;;;4947057;28;20039;-74
2022/02/15 05:09:41;;;;;;;790.97;376.90;;;;;;;;;;4939976;29;20506;-74
2022/02/15 05:12:07;;;;;;;790.72;381.75;;;;;;;;;;4961571;28;20070;-74
2022/02/15 05:14:33;;;;;;;788.33;380.73;;;;;;;;;;4962829;28;20491;-74
2022/02/15 05:16:59;;;;;;;791.88;381.55;;;;;;;;;;4948454;28;20031;-74
2022/02/15 05:19:25;;;;;;;789.17;374.38;;;;;;;;;;4949705;28;20031;-74
2022/02/15 05:21:54;;;;;;;792.15;381.60;;;;;;;;;;4948238;28;20460;-74
2022/02/15 05:24:20;;;;;;;785.58;366.25;;;;;;;;;;4947197;28;20127;-74
2022/02/15 05:26:46;;;;;;;787.38;374.98;;;;;;;;;;4948075;28;20450;-74
2022/02/15 05:29:12;;;;;;;789.40;378.05;;;;;;;;;;4948423;29;20047;-74
2022/02/15 05:31:38;;;;;;;790.42;381.80;;;;;;;;;;4940272;29;20353;-74
2022/02/15 05:34:04;;;;;;;792.63;384.50;;;;;;;;;;4948884;28;20099;-74
2022/02/15 05:36:33;;;;;;;792.05;378.85;;;;;;;;;;4950102;28;20652;-74
2022/02/15 05:38:59;;;;;;;790.95;378.58;;;;;;;;;;4941744;28;20031;-74
2022/02/15 05:41:26;;;;;;;792.22;382.60;;;;;;;;;;4947985;29;20093;-74
2022/02/15 05:43:52;;;;;;;791.83;381.75;;;;;;;;;;4947235;28;20081;-74
2022/02/15 05:46:18;;;;;;;791.40;383.48;;;;;;;;;;4947370;29;20062;-74
2022/02/15 05:48:44;;;;;;;791.97;380.42;;;;;;;;;;4949932;28;20554;-74
2022/02/15 05:51:10;;;;;;;791.67;375.40;;;;;;;;;;4945761;29;20039;-74
2022/02/15 05:53:36;;;;;;;789.42;375.83;;;;;;;;;;4959573;28;20105;-74
2022/02/15 05:56:02;;;;;;;791.13;381.17;;;;;;;;;;4946147;29;20031;-75
2022/02/15 05:58:30;;;;;;;790.03;377.13;;;;;;;;;;4948687;28;20023;-73
2022/02/15 06:00:56;;;;;;;788.50;374.48;;;;;;;;;;4949862;28;20046;-74
2022/02/15 06:06:07;;;;;;;789.95;374.95;;;;;;;;;;4945592;29;20046;-74
2022/02/15 06:08:34;;;;;;;790.05;376.13;;;;;;;;;;4946772;29;20507;-74
2022/02/15 06:11:00;;;;;;;790.40;380.23;;;;;;;;;;4948577;28;20082;-75
2022/02/15 06:13:26;;;;;;;788.05;376.33;;;;;;;;;;4948144;28;20690;-74
2022/02/15 06:15:52;;;;;;;789.53;374.25;;;;;;;;;;4943215;28;20032;-74
2022/02/15 06:18:18;;;;;;;789.67;376.33;;;;;;;;;;4959648;28;20453;-74
2022/02/15 06:20:44;;;;;;;791.90;374.83;;;;;;;;;;4942476;28;20035;-74
2022/02/15 06:23:10;;;;;;;789.20;373.63;;;;;;;;;;4946946;28;20563;-74
2022/02/15 06:25:36;;;;;;;791.13;378.95;;;;;;;;;;4965540;28;20043;-74
2022/02/15 06:28:02;;;;;;;786.55;369.25;;;;;;;;;;4950514;29;20039;-74
2022/02/15 06:30:28;;;;;;;789.80;379.25;;;;;;;;;;4945197;28;20044;-74
2022/02/15 06:32:54;;;;;;;789.03;380.08;;;;;;;;;;4943468;29;20100;-74
2022/02/15 06:35:21;;;;;;;787.78;375.45;;;;;;;;;;4951475;28;20056;-74
2022/02/15 06:37:48;;;;;;;791.60;380.05;;;;;;;;;;4950033;29;20085;-74
2022/02/15 06:40:15;;;;;;;792.55;381.33;;;;;;;;;;4951430;28;20074;-74
2022/02/15 06:42:42;;;;;;;789.85;377.58;;;;;;;;;;4951869;28;20107;-74
2022/02/15 06:45:08;;;;;;;788.83;377.45;;;;;;;;;;4952067;28;20081;-74
2022/02/15 06:47:34;;;;;;;790.50;377.92;;;;;;;;;;4949429;28;20077;-74
2022/02/15 06:50:00;;;;;;;790.35;379.42;;;;;;;;;;4951951;28;20036;-74
2022/02/15 06:52:27;;;;;;;785.72;378.00;;;;;;;;;;4950448;28;20051;-74
2022/02/15 06:54:53;;;;;;;789.20;380.23;;;;;;;;;;4952004;28;20034;-74
2022/02/15 06:57:19;;;;;;;784.58;373.73;;;;;;;;;;4946248;28;20030;-74
2022/02/15 06:59:45;;;;;;;788.13;381.33;;;;;;;;;;4945763;29;20102;-74
2022/02/15 07:02:11;;;;;;;790.58;383.98;;;;;;;;;;4949699;28;20023;-74
2022/02/15 07:04:37;;;;;;;789.25;383.00;;;;;;;;;;4942910;29;20040;-75
2022/02/15 07:07:03;;;;;;;790.30;381.73;;;;;;;;;;4948406;28;20055;-74
2022/02/15 07:09:29;;;;;;;790.60;385.13;;;;;;;;;;4948041;29;20072;-74
2022/02/15 07:11:55;;;;;;;788.97;385.17;;;;;;;;;;4950500;28;20038;-74
2022/02/15 07:14:21;;;;;;;789.78;384.75;;;;;;;;;;4951277;29;20023;-74
2022/02/15 07:16:48;;;;;;;791.15;386.77;;;;;;;;;;4950093;29;20067;-75
2022/02/15 07:19:14;;;;;;;790.28;385.77;;;;;;;;;;4949526;28;20039;-74
2022/02/15 07:21:42;;;;;;;790.42;383.17;;;;;;;;;;4950605;28;20418;-74
2022/02/15 07:24:08;;;;;;;791.25;386.17;;;;;;;;;;4941015;29;20935;-74
2022/02/15 07:26:34;;;;;;;788.75;378.38;;;;;;;;;;4951399;28;20062;-74
2022/02/15 07:29:00;;;;;;;793.85;387.27;;;;;;;;;;4951833;28;20031;-74
2022/02/15 07:31:26;;;;;;;790.97;386.73;;;;;;;;;;4949986;28;20031;-74
2022/02/15 07:33:52;;;;;;;791.78;388.40;;;;;;;;;;4942700;28;20098;-75
2022/02/15 07:36:19;;;;;;;791.70;392.15;;;;;;;;;;4952489;28;20047;-74
2022/02/15 07:38:45;;;;;;;790.55;390.80;;;;;;;;;;4948258;28;20035;-74
2022/02/15 07:41:11;;;;;;;793.65;392.50;;;;;;;;;;4945864;28;20042;-74
2022/02/15 07:43:37;;;;;;;792.05;393.08;;;;;;;;;;4955357;28;20027;-75
2022/02/15 07:46:03;;;;;;;792.33;401.33;;;;;;;;;;4949533;28;20475;-75
2022/02/15 07:48:30;;;;;;;798.13;413.33;;;;;;;;;;4949865;28;20027;-75
2022/02/15 07:50:56;;;;;;;801.92;418.90;;;;;;;;;;4949067;28;20023;-75
2022/02/15 07:53:25;;;;;;;801.28;419.27;;;;;;;;;;4948787;28;20065;-75
2022/02/15 07:55:51;;;;;;;803.13;425.52;;;;;;;;;;4950425;28;20023;-75
2022/02/15 07:58:17;;;;;;;802.60;427.45;;;;;;;;;;4949651;28;20110;-74
2022/02/15 08:00:43;;;;;;;803.65;431.25;;;;;;;;;;4950627;28;20479;-75
2022/02/15 08:03:10;;;;;;;805.78;442.38;;;;;;;;;;4945063;28;20471;-74
2022/02/15 08:05:39;;;;;;;845.20;439.15;;;;;;;;;;4945901;28;20483;-75
2022/02/15 08:08:05;;;;;;;806.28;440.48;;;;;;;;;;4942785;28;20031;-75
2022/02/15 08:10:33;;;;;;;813.08;452.60;;;;;;;;;;4943785;28;20037;-84
2022/02/15 08:13:01;;;;;;;816.47;472.40;;;;;;;;;;4938841;29;22833;-77
2022/02/15 08:15:28;;;;;;;821.83;492.23;;;;;;;;;;4945075;28;20518;-78
2022/02/15 08:17:55;;;;;;;823.40;503.85;;;;;;;;;;4944382;28;20304;-78
2022/02/15 08:20:21;;;;;;;824.47;516.42;;;;;;;;;;4944155;28;20062;-78
2022/02/15 08:22:47;;;;;;;829.10;527.97;;;;;;;;;;4944692;28;20120;-77
2022/02/15 08:25:14;;;;;;;829.10;526.67;;;;;;;;;;4937433;28;20467;-78
2022/02/15 08:27:40;;;;;;;831.97;535.22;;;;;;;;;;4941800;28;20035;-74
2022/02/15 08:30:06;;;;;;;831.58;535.10;;;;;;;;;;4944124;28;20101;-73
2022/02/15 08:32:32;;;;;;;830.65;530.35;;;;;;;;;;4946022;28;20032;-74
2022/02/15 08:34:58;;;;;;;827.33;514.42;;;;;;;;;;4944318;28;20035;-76
2022/02/15 08:37:24;;;;;;;825.15;504.55;;;;;;;;;;4950577;29;20035;-76
2022/02/15 08:39:51;;;;;;;822.90;494.67;;;;;;;;;;4950087;29;20058;-77
2022/02/15 08:42:17;;;;;;;817.05;476.98;;;;;;;;;;4944994;28;20386;-77
2022/02/15 08:44:44;;;;;;;816.15;472.65;;;;;;;;;;4942999;28;20051;-76
2022/02/15 08:47:10;;;;;;;812.78;460.13;;;;;;;;;;4942103;28;20034;-73
2022/02/15 08:49:36;;;;;;;811.22;452.63;;;;;;;;;;4941097;28;20042;-73
2022/02/15 08:52:03;;;;;;;809.63;445.70;;;;;;;;;;4953583;28;20085;-75
2022/02/15 08:54:29;;;;;;;810.45;445.60;;;;;;;;;;4934437;28;20053;-78
2022/02/15 08:56:55;;;;;;;807.30;436.95;;;;;;;;;;4939977;28;20616;-75
2022/02/15 08:59:21;;;;;;;806.42;434.73;;;;;;;;;;4937059;28;20144;-74
2022/02/15 09:01:48;;;;;;;805.30;431.60;;;;;;;;;;4940582;29;20043;-75
2022/02/15 09:04:14;;;;;;;804.88;436.58;;;;;;;;;;4945643;28;20855;-74
2022/02/15 09:06:41;;;;;;;804.50;431.88;;;;;;;;;;4945234;28;20791;-74
2022/02/15 09:09:09;;;;;;;806.70;436.30;;;;;;;;;;4941939;29;20701;-74
2022/02/15 09:11:35;;;;;;;805.05;433.00;;;;;;;;;;4949768;28;20089;-74
2022/02/15 09:14:01;;;;;;;804.28;434.75;;;;;;;;;;4948844;28;20027;-74
2022/02/15 09:16:27;;;;;;;814.63;431.05;;;;;;;;;;4942369;29;20030;-75
2022/02/15 09:18:53;;;;;;;804.78;430.50;;;;;;;;;;4941927;28;20066;-75
2022/02/15 09:21:19;;;;;;;803.83;430.75;;;;;;;;;;4945098;28;20023;-75
2022/02/15 09:23:45;;;;;;;811.90;442.40;;;;;;;;;;4937411;28;20089;-74
2022/02/15 09:26:12;;;;;;;810.63;449.00;;;;;;;;;;4941437;29;20031;-75
2022/02/15 09:28:38;;;;;;;812.58;453.13;;;;;;;;;;4941597;28;20039;-75
2022/02/15 09:31:05;;;;;;;808.80;444.52;;;;;;;;;;4941731;28;20422;-74
2022/02/15 09:33:31;;;;;;;807.08;441.60;;;;;;;;;;4939388;28;20030;-75
2022/02/15 09:35:57;;;;;;;806.30;438.20;;;;;;;;;;4940156;28;20063;-74
2022/02/15 09:38:26;;;;;;;805.50;435.38;;;;;;;;;;4944729;28;20032;-74
2022/02/15 09:40:54;;;;;;;808.47;438.45;;;;;;;;;;4948633;28;20042;-75
2022/02/15 09:43:20;;;;;;;806.95;439.75;;;;;;;;;;4945983;29;20031;-75
2022/02/15 09:45:47;;;;;;;807.70;440.38;;;;;;;;;;4949455;28;20085;-75
2022/02/15 09:48:14;;;;;;;804.10;431.25;;;;;;;;;;4945539;28;20111;-75
2022/02/15 09:50:40;;;;;;;805.85;429.85;;;;;;;;;;4942747;28;20049;-75
2022/02/15 09:53:06;;;;;;;804.97;429.75;;;;;;;;;;4945084;28;20028;-74
2022/02/15 09:55:32;;;;;;;804.65;431.15;;;;;;;;;;4946375;28;20038;-74
2022/02/15 09:57:58;;;;;;;807.10;435.05;;;;;;;;;;4985357;28;20084;-74
2022/02/15 10:00:24;;;;;;;807.67;438.85;;;;;;;;;;4950895;28;20031;-75
2022/02/15 10:02:50;;;;;;;803.75;428.00;;;;;;;;;;4951291;29;20077;-75
2022/02/15 10:05:17;;;;;;;804.15;429.80;;;;;;;;;;4950646;28;20035;-75
2022/02/15 10:07:53;;;;;;;803.63;432.15;;;;;;;;;;4947802;28;20035;-74
2022/02/15 10:10:35;;;;;;;809.40;446.55;;;;;;;;;;4947057;29;20720;-75
2022/02/15 10:13:05;;;;;;;810.90;459.25;;;;;;;;;;4946484;29;20620;-75
2022/02/15 10:15:37;;;;;;;815.50;463.77;;;;;;;;;;4940571;29;20069;-74
2022/02/15 10:18:04;;;;;;;807.90;442.90;;;;;;;;;;4987540;28;20066;-75
2022/02/15 10:20:30;;;;;;;801.72;429.95;;;;;;;;;;4951574;28;20028;-75
2022/02/15 10:23:32;;;;;;;807.70;435.42;;;;;;;;;;4941748;29;20090;-74
2022/02/15 10:25:59;;;;;;;802.67;421.33;;;;;;;;;;4948831;28;20081;-74
2022/02/15 10:28:26;;;;;;;804.13;421.45;;;;;;;;;;4944733;28;20443;-74
2022/02/15 10:30:54;;;;;;;806.67;427.73;;;;;;;;;;4935718;29;20111;-75
2022/02/15 10:33:22;;;;;;;810.83;427.55;;;;;;;;;;4945934;28;20539;-75
2022/02/15 10:35:52;;;;;;;804.90;429.75;;;;;;;;;;4966922;28;20245;-75
2022/02/15 10:38:31;;;;;;;810.03;438.02;;;;;;;;;;4947765;28;20027;-74
2022/02/15 10:40:58;;;;;;;815.35;436.65;;;;;;;;;;4949706;29;20055;-74
2022/02/15 10:43:25;;;;;;;807.20;437.23;;;;;;;;;;4952651;28;20042;-74
2022/02/15 10:45:51;;;;;;;811.15;447.92;;;;;;;;;;4952524;28;20035;-75
2022/02/15 10:48:27;;;;;;;808.33;440.17;;;;;;;;;;4950633;29;20034;-75
2022/02/15 10:50:55;;;;;;;810.13;444.75;;;;;;;;;;4946522;28;20101;-72
2022/02/15 10:53:21;;;;;;;812.95;449.65;;;;;;;;;;4947264;28;20027;-72
2022/02/15 10:55:47;;;;;;;816.03;467.35;;;;;;;;;;4941995;28;20122;-75
2022/02/15 10:58:13;;;;;;;821.40;477.15;;;;;;;;;;4945260;29;20035;-74
2022/02/15 11:00:39;;;;;;;822.20;476.45;;;;;;;;;;4945362;28;20035;-75
2022/02/15 11:03:07;;;;;;;820.63;477.17;;;;;;;;;;4950194;28;20062;-75
2022/02/15 11:05:33;;;;;;;819.55;472.88;;;;;;;;;;4944399;29;20085;-76
2022/02/15 11:08:01;;;;;;;820.03;469.50;;;;;;;;;;4945407;28;20035;-76
2022/02/15 11:10:32;;;;;;;817.97;468.50;;;;;;;;;;4944352;28;20039;-75
2022/02/15 11:12:59;;;;;;;821.75;472.25;;;;;;;;;;4947467;28;20070;-75
2022/02/15 11:15:26;;;;;;;821.85;479.65;;;;;;;;;;4942016;28;20077;-75
2022/02/15 11:17:54;;;;;;;823.22;493.27;;;;;;;;;;4944402;28;20039;-74
2022/02/15 11:20:21;;;;;;;822.75;484.83;;;;;;;;;;4943206;28;20024;-75
2022/02/15 11:22:48;;;;;;;818.35;472.10;;;;;;;;;;4942720;28;20038;-76
2022/02/15 11:25:15;;;;;;;824.70;480.27;;;;;;;;;;4945051;29;20035;-75
2022/02/15 11:27:49;;;;;;;819.20;468.17;;;;;;;;;;4945531;28;20498;-75
2022/02/15 11:30:15;;;;;;;821.55;475.70;;;;;;;;;;4964014;28;20511;-76
2022/02/15 11:32:42;;;;;;;826.53;490.75;;;;;;;;;;4937983;29;20043;-77
2022/02/15 11:35:09;;;;;;;830.58;507.40;;;;;;;;;;4943987;29;20044;-76
2022/02/15 11:37:36;;;;;;;833.50;519.50;;;;;;;;;;4940411;28;20032;-76
2022/02/15 11:40:13;;;;;;;831.53;515.65;;;;;;;;;;4996863;28;20117;-75
2022/02/15 11:42:43;;;;;;;832.53;515.20;;;;;;;;;;4954647;28;20043;-76
2022/02/15 11:45:28;;;;;;;834.03;521.60;;;;;;;;;;4941754;29;20447;-75
2022/02/15 11:48:03;;;;;;;832.28;516.50;;;;;;;;;;4953561;28;20073;-75
2022/02/15 11:50:40;;;;;;;826.45;496.92;;;;;;;;;;4944990;28;20058;-75
2022/02/15 11:53:06;;;;;;;828.55;494.48;;;;;;;;;;4940736;28;20028;-74
2022/02/15 11:55:35;;;;;;;829.70;493.67;;;;;;;;;;4944713;28;20434;-75
2022/02/15 11:58:01;;;;;;;823.58;481.13;;;;;;;;;;4944080;28;20050;-76
2022/02/15 12:00:37;;;;;;;830.13;496.45;;;;;;;;;;4946331;28;20047;-75
2022/02/15 12:03:04;;;;;;;826.47;490.75;;;;;;;;;;4964175;28;20386;-75
2022/02/15 12:05:30;;;;;;;829.65;497.10;;;;;;;;;;4948481;28;20110;-74
2022/02/15 12:07:57;;;;;;;831.58;501.13;;;;;;;;;;4947705;28;20042;-74
2022/02/15 12:10:24;;;;;;;829.83;496.20;;;;;;;;;;4937336;29;20467;-76
2022/02/15 12:12:52;;;;;;;827.53;498.27;;;;;;;;;;4952637;28;20051;-75
2022/02/15 12:15:19;;;;;;;823.97;485.05;;;;;;;;;;4964010;28;20027;-76
2022/02/15 12:17:50;;;;;;;826.67;484.02;;;;;;;;;;4952635;28;20027;-76
2022/02/15 12:20:17;;;;;;;824.78;483.98;;;;;;;;;;4950778;29;20065;-76
2022/02/15 12:22:44;;;;;;;826.35;485.55;;;;;;;;;;4950613;28;20043;-76
2022/02/15 12:25:10;;;;;;;822.28;479.48;;;;;;;;;;4950789;29;20114;-76
2022/02/15 12:27:40;;;;;;;822.47;476.20;;;;;;;;;;4951901;28;20043;-76
2022/02/15 12:30:06;;;;;;;824.97;483.35;;;;;;;;;;4949457;28;20078;-76
2022/02/15 12:32:33;;;;;;;822.20;481.85;;;;;;;;;;4964180;28;20032;-74
2022/02/15 12:34:59;;;;;;;824.95;482.33;;;;;;;;;;4949621;28;20410;-76
2022/02/15 12:37:28;;;;;;;833.75;481.48;;;;;;;;;;4951755;28;20031;-76
2022/02/15 12:39:55;;;;;;;822.55;476.65;;;;;;;;;;4951675;28;20448;-77
2022/02/15 12:42:23;;;;;;;823.20;483.15;;;;;;;;;;4956088;28;20032;-75
2022/02/15 12:44:57;;;;;;;822.88;477.45;;;;;;;;;;4951163;28;20109;-74
2022/02/15 12:47:23;;;;;;;824.03;476.02;;;;;;;;;;4950140;29;20491;-77
2022/02/15 12:49:51;;;;;;;823.85;478.58;;;;;;;;;;4949501;28;20031;-76
2022/02/15 12:52:17;;;;;;;823.63;480.30;;;;;;;;;;4944566;29;20036;-76
2022/02/15 12:54:53;;;;;;;826.38;491.00;;;;;;;;;;4958155;28;20028;-76
2022/02/15 12:57:20;;;;;;;827.67;493.25;;;;;;;;;;4945773;29;20038;-75
2022/02/15 12:59:47;;;;;;;828.00;490.13;;;;;;;;;;4949089;29;20035;-76
2022/02/15 13:02:16;;;;;;;831.03;492.50;;;;;;;;;;4949515;28;20106;-75
2022/02/15 13:04:48;;;;;;;832.85;500.40;;;;;;;;;;4947816;28;20035;-75
2022/02/15 13:07:14;;;;;;;823.33;481.58;;;;;;;;;;4949474;29;20119;-76
2022/02/15 13:09:47;;;;;;;825.72;486.65;;;;;;;;;;4951263;28;20662;-76
2022/02/15 13:12:16;;;;;;;821.58;482.20;;;;;;;;;;4950389;29;20061;-77
2022/02/15 13:14:45;;;;;;;824.25;487.10;;;;;;;;;;4948345;28;20039;-76
2022/02/15 13:17:11;;;;;;;827.92;488.08;;;;;;;;;;4940535;29;20568;-76
2022/02/15 13:19:38;;;;;;;826.25;486.55;;;;;;;;;;4948847;28;20035;-75
2022/02/15 13:22:11;;;;;;;822.08;477.38;;;;;;;;;;4948520;28;20039;-76
2022/02/15 13:24:38;;;;;;;821.33;474.77;;;;;;;;;;4949392;28;20062;-76
2022/02/15 13:27:04;;;;;;;823.40;476.95;;;;;;;;;;4968625;28;20067;-76
2022/02/15 13:29:37;;;;;;;825.05;485.02;;;;;;;;;;4956753;28;20063;-76
2022/02/15 13:32:06;;;;;;;828.72;486.52;;;;;;;;;;4938320;29;20076;-76
2022/02/15 13:34:34;;;;;;;823.47;483.35;;;;;;;;;;4942069;29;20040;-76
2022/02/15 13:37:01;;;;;;;827.58;489.73;;;;;;;;;;4948938;28;20047;-76
2022/02/15 13:39:27;;;;;;;822.80;477.40;;;;;;;;;;4945220;28;20035;-76
2022/02/15 13:41:53;;;;;;;822.90;481.50;;;;;;;;;;4948392;29;20043;-76
2022/02/15 13:44:20;;;;;;;823.35;478.35;;;;;;;;;;4949713;29;20058;-76
2022/02/15 13:46:46;;;;;;;823.58;483.48;;;;;;;;;;4946207;29;20050;-76
2022/02/15 13:49:12;;;;;;;823.13;481.60;;;;;;;;;;4947266;28;20051;-75
2022/02/15 13:51:38;;;;;;;819.75;471.02;;;;;;;;;;4944209;28;20034;-74
2022/02/15 13:54:05;;;;;;;822.92;472.20;;;;;;;;;;4944281;28;20035;-75
2022/02/15 13:56:32;;;;;;;821.72;466.25;;;;;;;;;;4950203;28;20034;-74